sensor_id;sensor_type;location;lat;lon;timestamp;pressure;altitude;pressure_sealevel;temperature;humidity
71938;BME280;59810;48.800;9.086;2023-05-12T00:01:41;97349.53;;;10.61;98.38
71938;BME280;59810;48.800;9.086;2023-05-12T00:04:09;97352.50;;;10.59;98.34
71938;BME280;59810;48.800;9.086;2023-05-12T00:06:36;97350.00;;;10.53;98.95
71938;BME280;59810;48.800;9.086;2023-05-12T00:09:02;97351.91;;;10.52;98.84
71938;BME280;59810;48.800;9.086;2023-05-12T00:11:27;97347.88;;;10.55;99.11
71938;BME280;59810;48.800;9.086;2023-05-12T00:13:54;97336.00;;;10.56;99.65
71938;BME280;59810;48.800;9.086;2023-05-12T00:16:19;97339.78;;;10.55;100.00
71938;BME280;59810;48.800;9.086;2023-05-12T00:18:44;97345.16;;;10.55;98.67
71938;BME280;59810;48.800;9.086;2023-05-12T00:21:10;97339.25;;;10.58;98.73
71938;BME280;59810;48.800;9.086;2023-05-12T00:23:36;97335.78;;;10.63;98.46
71938;BME280;59810;48.800;9.086;2023-05-12T00:26:04;97339.34;;;10.68;97.95
71938;BME280;59810;48.800;9.086;2023-05-12T00:28:29;97336.91;;;10.67;98.32
71938;BME280;59810;48.800;9.086;2023-05-12T00:30:56;97329.59;;;10.67;98.13
71938;BME280;59810;48.800;9.086;2023-05-12T00:33:24;97332.31;;;10.67;97.50
71938;BME280;59810;48.800;9.086;2023-05-12T00:35:50;97337.19;;;10.70;97.11
71938;BME280;59810;48.800;9.086;2023-05-12T00:38:15;97330.44;;;10.73;97.11
71938;BME280;59810;48.800;9.086;2023-05-12T00:40:40;97333.47;;;10.76;96.58
71938;BME280;59810;48.800;9.086;2023-05-12T00:43:06;97332.94;;;10.74;96.24
71938;BME280;59810;48.800;9.086;2023-05-12T00:45:32;97331.84;;;10.75;95.79
71938;BME280;59810;48.800;9.086;2023-05-12T00:47:58;97336.44;;;10.75;96.05
71938;BME280;59810;48.800;9.086;2023-05-12T00:50:23;97341.59;;;10.76;96.08
71938;BME280;59810;48.800;9.086;2023-05-12T00:52:49;97334.56;;;10.75;96.06
71938;BME280;59810;48.800;9.086;2023-05-12T00:55:15;97338.06;;;10.76;96.35
71938;BME280;59810;48.800;9.086;2023-05-12T00:57:41;97342.13;;;10.78;96.55
71938;BME280;59810;48.800;9.086;2023-05-12T01:00:07;97329.34;;;10.69;97.72
71938;BME280;59810;48.800;9.086;2023-05-12T01:02:33;97332.28;;;10.62;98.52
71938;BME280;59810;48.800;9.086;2023-05-12T01:05:01;97331.44;;;10.62;98.15
71938;BME280;59810;48.800;9.086;2023-05-12T01:07:31;97329.31;;;10.64;98.09
71938;BME280;59810;48.800;9.086;2023-05-12T01:09:57;97329.31;;;10.64;98.31
71938;BME280;59810;48.800;9.086;2023-05-12T01:12:26;97333.56;;;10.54;100.00
71938;BME280;59810;48.800;9.086;2023-05-12T01:14:55;97331.13;;;10.53;100.00
71938;BME280;59810;48.800;9.086;2023-05-12T01:17:26;97336.53;;;10.53;100.00
71938;BME280;59810;48.800;9.086;2023-05-12T01:19:57;97337.06;;;10.55;100.00
71938;BME280;59810;48.800;9.086;2023-05-12T01:22:28;97333.56;;;10.54;100.00
71938;BME280;59810;48.800;9.086;2023-05-12T01:25:04;97330.34;;;10.57;100.00
71938;BME280;59810;48.800;9.086;2023-05-12T01:27:33;97332.81;;;10.64;100.00
71938;BME280;59810;48.800;9.086;2023-05-12T01:30:03;97331.19;;;10.63;100.00
71938;BME280;59810;48.800;9.086;2023-05-12T01:32:31;97329.56;;;10.62;100.00
71938;BME280;59810;48.800;9.086;2023-05-12T01:34:56;97332.00;;;10.64;100.00
71938;BME280;59810;48.800;9.086;2023-05-12T01:37:22;97330.38;;;10.63;100.00
71938;BME280;59810;48.800;9.086;2023-05-12T01:39:51;97329.06;;;10.65;100.00
71938;BME280;59810;48.800;9.086;2023-05-12T01:42:16;97329.09;;;10.70;100.00
71938;BME280;59810;48.800;9.086;2023-05-12T01:44:41;97330.22;;;10.74;99.58
71938;BME280;59810;48.800;9.086;2023-05-12T01:47:07;97324.31;;;10.77;99.10
71938;BME280;59810;48.800;9.086;2023-05-12T01:49:36;97328.91;;;10.77;98.84
71938;BME280;59810;48.800;9.086;2023-05-12T01:52:02;97328.00;;;10.71;100.00
71938;BME280;59810;48.800;9.086;2023-05-12T01:54:27;97330.72;;;10.71;99.68
71938;BME280;59810;48.800;9.086;2023-05-12T01:56:53;97330.78;;;10.76;99.15
71938;BME280;59810;48.800;9.086;2023-05-12T01:59:18;97331.59;;;10.77;98.94
71938;BME280;59810;48.800;9.086;2023-05-12T02:01:43;97321.59;;;10.77;100.00
71938;BME280;59810;48.800;9.086;2023-05-12T02:04:14;97325.38;;;10.76;100.00
71938;BME280;59810;48.800;9.086;2023-05-12T02:06:39;97320.53;;;10.78;100.00
71938;BME280;59810;48.800;9.086;2023-05-12T02:09:07;97333.22;;;10.78;100.00
71938;BME280;59810;48.800;9.086;2023-05-12T02:11:34;97332.34;;;10.72;100.00
71938;BME280;59810;48.800;9.086;2023-05-12T02:14:00;97330.13;;;10.64;100.00
71938;BME280;59810;48.800;9.086;2023-05-12T02:16:26;97332.75;;;10.54;100.00
71938;BME280;59810;48.800;9.086;2023-05-12T02:18:53;97329.28;;;10.58;100.00
71938;BME280;59810;48.800;9.086;2023-05-12T02:21:18;97327.66;;;10.57;100.00
71938;BME280;59810;48.800;9.086;2023-05-12T02:23:46;97327.94;;;10.61;100.00
71938;BME280;59810;48.800;9.086;2023-05-12T02:26:12;97323.91;;;10.64;100.00
71938;BME280;59810;48.800;9.086;2023-05-12T02:28:37;97322.84;;;10.65;100.00
71938;BME280;59810;48.800;9.086;2023-05-12T02:31:03;97334.44;;;10.65;100.00
71938;BME280;59810;48.800;9.086;2023-05-12T02:33:28;97331.50;;;10.67;100.00
71938;BME280;59810;48.800;9.086;2023-05-12T02:35:54;97327.19;;;10.71;100.00
71938;BME280;59810;48.800;9.086;2023-05-12T02:38:20;97322.31;;;10.68;100.00
71938;BME280;59810;48.800;9.086;2023-05-12T02:40:45;97325.28;;;10.66;100.00
71938;BME280;59810;48.800;9.086;2023-05-12T02:43:11;97329.00;;;10.60;100.00
71938;BME280;59810;48.800;9.086;2023-05-12T02:45:37;97320.91;;;10.60;100.00
71938;BME280;59810;48.800;9.086;2023-05-12T02:48:03;97325.75;;;10.58;100.00
71938;BME280;59810;48.800;9.086;2023-05-12T02:50:31;97320.88;;;10.55;100.00
71938;BME280;59810;48.800;9.086;2023-05-12T02:52:57;97324.66;;;10.54;100.00
71938;BME280;59810;48.800;9.086;2023-05-12T02:55:24;97325.72;;;10.53;100.00
71938;BME280;59810;48.800;9.086;2023-05-12T02:57:50;97322.72;;;10.49;100.00
71938;BME280;59810;48.800;9.086;2023-05-12T03:00:20;97319.22;;;10.49;100.00
71938;BME280;59810;48.800;9.086;2023-05-12T03:02:45;97317.03;;;10.46;100.00
71938;BME280;59810;48.800;9.086;2023-05-12T03:05:10;97315.41;;;10.45;100.00
71938;BME280;59810;48.800;9.086;2023-05-12T03:07:36;97312.69;;;10.45;100.00
71938;BME280;59810;48.800;9.086;2023-05-12T03:10:01;97320.72;;;10.40;100.00
71938;BME280;59810;48.800;9.086;2023-05-12T03:12:26;97315.84;;;10.37;100.00
71938;BME280;59810;48.800;9.086;2023-05-12T03:14:55;97325.91;;;10.41;100.00
71938;BME280;59810;48.800;9.086;2023-05-12T03:17:24;97318.91;;;10.45;100.00
71938;BME280;59810;48.800;9.086;2023-05-12T03:19:52;97322.72;;;10.49;100.00
71938;BME280;59810;48.800;9.086;2023-05-12T03:22:20;97327.78;;;10.41;100.00
71938;BME280;59810;48.800;9.086;2023-05-12T03:24:50;97324.56;;;10.44;100.00
71938;BME280;59810;48.800;9.086;2023-05-12T03:27:16;97328.91;;;10.45;100.00
71938;BME280;59810;48.800;9.086;2023-05-12T03:29:41;97327.28;;;10.44;100.00
71938;BME280;59810;48.800;9.086;2023-05-12T03:32:06;97324.34;;;10.50;100.00
71938;BME280;59810;48.800;9.086;2023-05-12T03:34:33;97327.59;;;10.52;100.00
71938;BME280;59810;48.800;9.086;2023-05-12T03:36:58;97321.41;;;10.52;100.00
71938;BME280;59810;48.800;9.086;2023-05-12T03:39:25;97321.13;;;10.53;100.00
71938;BME280;59810;48.800;9.086;2023-05-12T03:41:57;97325.41;;;10.49;100.00
71938;BME280;59810;48.800;9.086;2023-05-12T03:44:24;97322.22;;;10.52;100.00
71938;BME280;59810;48.800;9.086;2023-05-12T03:46:50;97316.56;;;10.54;100.00
71938;BME280;59810;48.800;9.086;2023-05-12T03:49:17;97325.72;;;10.53;100.00
71938;BME280;59810;48.800;9.086;2023-05-12T03:51:43;97319.47;;;10.47;100.00
71938;BME280;59810;48.800;9.086;2023-05-12T03:54:10;97320.03;;;10.49;100.00
71938;BME280;59810;48.800;9.086;2023-05-12T03:56:36;97320.84;;;10.50;100.00
71938;BME280;59810;48.800;9.086;2023-05-12T03:59:03;97320.84;;;10.50;100.00
71938;BME280;59810;48.800;9.086;2023-05-12T04:01:31;97315.44;;;10.50;100.00
71938;BME280;59810;48.800;9.086;2023-05-12T04:03:56;97317.38;;;10.54;100.00
71938;BME280;59810;48.800;9.086;2023-05-12T04:06:24;97311.97;;;10.54;100.00
71938;BME280;59810;48.800;9.086;2023-05-12T04:08:50;97312.47;;;10.51;100.00
71938;BME280;59810;48.800;9.086;2023-05-12T04:11:15;97308.72;;;10.52;100.00
71938;BME280;59810;48.800;9.086;2023-05-12T04:13:40;97312.47;;;10.51;100.00
71938;BME280;59810;48.800;9.086;2023-05-12T04:16:06;97314.09;;;10.52;100.00
71938;BME280;59810;48.800;9.086;2023-05-12T04:18:31;97311.97;;;10.54;100.00
71938;BME280;59810;48.800;9.086;2023-05-12T04:20:56;97314.66;;;10.54;100.00
71938;BME280;59810;48.800;9.086;2023-05-12T04:23:22;97322.25;;;10.57;100.00
71938;BME280;59810;48.800;9.086;2023-05-12T04:25:47;97324.16;;;10.62;100.00
71938;BME280;59810;48.800;9.086;2023-05-12T04:28:13;97320.41;;;10.63;100.00
71938;BME280;59810;48.800;9.086;2023-05-12T04:30:39;97323.34;;;10.62;100.00
71938;BME280;59810;48.800;9.086;2023-05-12T04:33:05;97326.91;;;10.67;100.00
71938;BME280;59810;48.800;9.086;2023-05-12T04:35:33;97329.59;;;10.67;100.00
71938;BME280;59810;48.800;9.086;2023-05-12T04:37:59;97332.81;;;10.64;100.00
71938;BME280;59810;48.800;9.086;2023-05-12T04:40:27;97329.06;;;10.65;100.00
71938;BME280;59810;48.800;9.086;2023-05-12T04:42:52;97329.06;;;10.65;100.00
71938;BME280;59810;48.800;9.086;2023-05-12T04:45:18;97331.50;;;10.67;100.00
71938;BME280;59810;48.800;9.086;2023-05-12T04:47:43;97333.63;;;10.65;100.00
71938;BME280;59810;48.800;9.086;2023-05-12T04:50:11;97336.63;;;10.68;100.00
71938;BME280;59810;48.800;9.086;2023-05-12T04:52:37;97341.72;;;10.65;100.00
71938;BME280;59810;48.800;9.086;2023-05-12T04:55:04;97334.97;;;10.62;100.00
71938;BME280;59810;48.800;9.086;2023-05-12T04:57:32;97344.19;;;10.66;100.00
71938;BME280;59810;48.800;9.086;2023-05-12T04:59:57;97339.06;;;10.70;100.00
71938;BME280;59810;48.800;9.086;2023-05-12T05:02:24;97339.84;;;10.65;100.00
71938;BME280;59810;48.800;9.086;2023-05-12T05:04:49;97350.91;;;10.64;100.00
71938;BME280;59810;48.800;9.086;2023-05-12T05:07:14;97346.31;;;10.64;100.00
71938;BME280;59810;48.800;9.086;2023-05-12T05:09:40;97350.91;;;10.64;100.00
71938;BME280;59810;48.800;9.086;2023-05-12T05:12:08;97346.06;;;10.66;100.00
71938;BME280;59810;48.800;9.086;2023-05-12T05:14:33;97350.38;;;10.67;100.00
71938;BME280;59810;48.800;9.086;2023-05-12T05:16:59;97340.97;;;10.69;100.00
71938;BME280;59810;48.800;9.086;2023-05-12T05:19:25;97351.75;;;10.69;100.00
71938;BME280;59810;48.800;9.086;2023-05-12T05:21:50;97346.44;;;10.74;100.00
71938;BME280;59810;48.800;9.086;2023-05-12T05:24:18;97355.63;;;10.78;100.00
71938;BME280;59810;48.800;9.086;2023-05-12T05:26:44;97358.38;;;10.83;100.00
71938;BME280;59810;48.800;9.086;2023-05-12T05:29:12;97355.38;;;10.80;100.00
71938;BME280;59810;48.800;9.086;2023-05-12T05:31:40;97358.63;;;10.82;100.00
71938;BME280;59810;48.800;9.086;2023-05-12T05:34:05;97357.34;;;10.89;100.00
71938;BME280;59810;48.800;9.086;2023-05-12T05:36:30;97359.53;;;10.93;100.00
71938;BME280;59810;48.800;9.086;2023-05-12T05:38:58;97357.97;;;11.02;100.00
71938;BME280;59810;48.800;9.086;2023-05-12T05:41:23;97361.22;;;11.04;100.00
71938;BME280;59810;48.800;9.086;2023-05-12T05:43:48;97362.91;;;11.10;100.00
71938;BME280;59810;48.800;9.086;2023-05-12T05:46:14;97365.63;;;11.15;100.00
71938;BME280;59810;48.800;9.086;2023-05-12T05:48:39;97362.94;;;11.15;99.36
71938;BME280;59810;48.800;9.086;2023-05-12T05:51:05;97362.41;;;11.18;98.53
71938;BME280;59810;48.800;9.086;2023-05-12T05:53:30;97364.03;;;11.19;99.41
71938;BME280;59810;48.800;9.086;2023-05-12T05:55:58;97360.00;;;11.21;97.96
71938;BME280;59810;48.800;9.086;2023-05-12T05:58:23;97366.78;;;11.29;98.22
71938;BME280;59810;48.800;9.086;2023-05-12T06:00:49;97361.69;;;11.33;97.88
71938;BME280;59810;48.800;9.086;2023-05-12T06:03:17;97363.03;;;11.35;96.57
71938;BME280;59810;48.800;9.086;2023-05-12T06:05:42;97369.59;;;11.39;97.45
71938;BME280;59810;48.800;9.086;2023-05-12T06:08:08;97368.50;;;11.40;96.47
71938;BME280;59810;48.800;9.086;2023-05-12T06:10:35;97368.28;;;11.47;97.63
71938;BME280;59810;48.800;9.086;2023-05-12T06:13:01;97368.25;;;11.42;96.85
71938;BME280;59810;48.800;9.086;2023-05-12T06:15:29;97377.19;;;11.47;96.49
71938;BME280;59810;48.800;9.086;2023-05-12T06:17:54;97383.97;;;11.50;95.76
71938;BME280;59810;48.800;9.086;2023-05-12T06:20:20;97377.16;;;11.42;95.08
71938;BME280;59810;48.800;9.086;2023-05-12T06:22:47;97380.47;;;11.54;95.31
71938;BME280;59810;48.800;9.086;2023-05-12T06:25:12;97376.19;;;11.64;94.34
71938;BME280;59810;48.800;9.086;2023-05-12T06:27:38;97388.06;;;11.63;93.05
71938;BME280;59810;48.800;9.086;2023-05-12T06:30:03;97384.56;;;11.62;94.51
71938;BME280;59810;48.800;9.086;2023-05-12T06:32:29;97382.09;;;11.56;94.13
71938;BME280;59810;48.800;9.086;2023-05-12T06:34:54;97388.59;;;11.54;93.17
71938;BME280;59810;48.800;9.086;2023-05-12T06:37:22;97388.56;;;11.49;92.38
71938;BME280;59810;48.800;9.086;2023-05-12T06:39:47;97391.84;;;11.57;93.60
71938;BME280;59810;48.800;9.086;2023-05-12T06:42:18;97391.34;;;11.65;94.37
71938;BME280;59810;48.800;9.086;2023-05-12T06:44:43;97394.06;;;11.70;94.94
71938;BME280;59810;48.800;9.086;2023-05-12T06:47:11;97391.03;;;11.61;92.71
71938;BME280;59810;48.800;9.086;2023-05-12T06:49:37;97392.38;;;11.59;92.54
71938;BME280;59810;48.800;9.086;2023-05-12T06:52:04;97388.91;;;11.63;92.54
71938;BME280;59810;48.800;9.086;2023-05-12T06:54:30;97386.75;;;11.65;93.26
71938;BME280;59810;48.800;9.086;2023-05-12T06:56:55;97388.91;;;11.68;93.64
71938;BME280;59810;48.800;9.086;2023-05-12T06:59:21;97393.91;;;11.81;94.05
71938;BME280;59810;48.800;9.086;2023-05-12T07:01:48;97385.53;;;11.88;93.81
71938;BME280;59810;48.800;9.086;2023-05-12T07:04:13;97390.13;;;11.82;91.76
71938;BME280;59810;48.800;9.086;2023-05-12T07:06:39;97398.53;;;11.91;92.10
71938;BME280;59810;48.800;9.086;2023-05-12T07:09:07;97388.25;;;11.88;90.39
71938;BME280;59810;48.800;9.086;2023-05-12T07:11:35;97395.03;;;12.01;92.22
71938;BME280;59810;48.800;9.086;2023-05-12T07:14:00;97399.41;;;12.07;90.94
71938;BME280;59810;48.800;9.086;2023-05-12T07:16:28;97391.59;;;12.10;90.10
71938;BME280;59810;48.800;9.086;2023-05-12T07:18:53;97387.72;;;11.96;91.76
71938;BME280;59810;48.800;9.086;2023-05-12T07:21:19;97382.09;;;12.08;91.49
71938;BME280;59810;48.800;9.086;2023-05-12T07:23:44;97392.13;;;12.12;92.85
71938;BME280;59810;48.800;9.086;2023-05-12T07:26:10;97391.59;;;12.21;93.00
71938;BME280;59810;48.800;9.086;2023-05-12T07:28:35;97391.88;;;12.19;90.47
71938;BME280;59810;48.800;9.086;2023-05-12T07:31:04;97382.41;;;12.27;89.60
71938;BME280;59810;48.800;9.086;2023-05-12T07:33:33;97386.53;;;12.50;92.22
71938;BME280;59810;48.800;9.086;2023-05-12T07:35:59;97388.22;;;12.76;96.28
71938;BME280;59810;48.800;9.086;2023-05-12T07:38:30;97388.22;;;13.12;92.92
71938;BME280;59810;48.800;9.086;2023-05-12T07:40:59;97387.88;;;13.64;96.95
71938;BME280;59810;48.800;9.086;2023-05-12T07:43:24;97382.63;;;14.03;90.72
71938;BME280;59810;48.800;9.086;2023-05-12T07:45:50;97390.19;;;14.11;86.18
71938;BME280;59810;48.800;9.086;2023-05-12T07:48:15;97381.13;;;14.31;81.48
71938;BME280;59810;48.800;9.086;2023-05-12T07:50:40;97386.91;;;14.14;77.96
71938;BME280;59810;48.800;9.086;2023-05-12T07:53:08;97386.09;;;14.14;83.95
71938;BME280;59810;48.800;9.086;2023-05-12T07:55:36;97383.63;;;14.17;82.25
71938;BME280;59810;48.800;9.086;2023-05-12T07:58:01;97380.81;;;14.43;81.04
71938;BME280;59810;48.800;9.086;2023-05-12T08:00:27;97386.19;;;14.53;80.39
71938;BME280;59810;48.800;9.086;2023-05-12T08:02:53;97382.97;;;14.46;75.47
71938;BME280;59810;48.800;9.086;2023-05-12T08:05:18;97388.56;;;14.65;77.96
71938;BME280;59810;48.800;9.086;2023-05-12T08:07:44;97380.38;;;14.70;78.24
71938;BME280;59810;48.800;9.086;2023-05-12T08:10:11;97385.72;;;14.80;76.14
71938;BME280;59810;48.800;9.086;2023-05-12T08:12:39;97390.28;;;14.50;74.26
71938;BME280;59810;48.800;9.086;2023-05-12T08:15:07;97388.28;;;14.61;75.16
71938;BME280;59810;48.800;9.086;2023-05-12T08:17:32;97386.19;;;14.53;75.62
71938;BME280;59810;48.800;9.086;2023-05-12T08:20:02;97389.22;;;14.41;77.07
71938;BME280;59810;48.800;9.086;2023-05-12T08:22:30;97393.88;;;14.30;78.07
71938;BME280;59810;48.800;9.086;2023-05-12T08:24:56;97390.38;;;14.25;76.22
71938;BME280;59810;48.800;9.086;2023-05-12T08:27:24;97387.56;;;13.86;75.22
71938;BME280;59810;48.800;9.086;2023-05-12T08:29:53;97385.97;;;13.75;79.25
71938;BME280;59810;48.800;9.086;2023-05-12T08:32:21;97384.09;;;13.70;75.90
71938;BME280;59810;48.800;9.086;2023-05-12T08:34:46;97389.47;;;13.85;76.61
71938;BME280;59810;48.800;9.086;2023-05-12T08:37:12;97385.63;;;14.01;77.99
71938;BME280;59810;48.800;9.086;2023-05-12T08:39:37;97392.56;;;14.23;75.46
71938;BME280;59810;48.800;9.086;2023-05-12T08:44:48;97390.75;;;14.08;73.39
71938;BME280;59810;48.800;9.086;2023-05-12T08:47:22;97396.16;;;14.08;77.47
71938;BME280;59810;48.800;9.086;2023-05-12T08:49:58;97396.94;;;14.19;75.58
71938;BME280;59810;48.800;9.086;2023-05-12T08:52:24;97402.88;;;14.21;73.84
71938;BME280;59810;48.800;9.086;2023-05-12T08:54:53;97396.72;;;14.05;75.47
71938;BME280;59810;48.800;9.086;2023-05-12T08:57:19;97397.75;;;14.14;75.02
71938;BME280;59810;48.800;9.086;2023-05-12T08:59:45;97394.84;;;14.00;75.37
71938;BME280;59810;48.800;9.086;2023-05-12T09:02:12;97396.97;;;14.09;74.86
71938;BME280;59810;48.800;9.086;2023-05-12T09:04:39;97388.84;;;14.04;75.44
71938;BME280;59810;48.800;9.086;2023-05-12T09:07:04;97397.56;;;13.90;76.52
71938;BME280;59810;48.800;9.086;2023-05-12T09:09:34;97393.28;;;13.79;75.43
71938;BME280;59810;48.800;9.086;2023-05-12T09:12:01;97393.38;;;13.38;77.57
71938;BME280;59810;48.800;9.086;2023-05-12T09:14:28;97392.31;;;13.34;78.78
71938;BME280;59810;48.800;9.086;2023-05-12T09:17:00;97396.06;;;13.13;80.02
71938;BME280;59810;48.800;9.086;2023-05-12T09:19:26;97398.53;;;13.30;80.64
71938;BME280;59810;48.800;9.086;2023-05-12T09:21:52;97393.91;;;13.25;79.50
71938;BME280;59810;48.800;9.086;2023-05-12T09:24:18;97397.16;;;13.32;79.79
71938;BME280;59810;48.800;9.086;2023-05-12T09:26:51;97398.81;;;13.33;79.32
71938;BME280;59810;48.800;9.086;2023-05-12T09:29:17;97406.13;;;13.38;78.43
71938;BME280;59810;48.800;9.086;2023-05-12T09:31:54;97407.72;;;13.54;79.68
71938;BME280;59810;48.800;9.086;2023-05-12T09:34:29;97402.56;;;13.58;78.66
71938;BME280;59810;48.800;9.086;2023-05-12T09:36:57;97399.25;;;13.76;76.18
71938;BME280;59810;48.800;9.086;2023-05-12T09:39:23;97401.13;;;13.86;75.74
71938;BME280;59810;48.800;9.086;2023-05-12T09:41:50;97401.97;;;13.76;76.98
71938;BME280;59810;48.800;9.086;2023-05-12T09:44:16;97397.63;;;13.80;76.42
71938;BME280;59810;48.800;9.086;2023-05-12T09:46:42;97400.06;;;13.77;77.84
71938;BME280;59810;48.800;9.086;2023-05-12T09:49:08;97398.69;;;13.84;75.97
71938;BME280;59810;48.800;9.086;2023-05-12T09:51:33;97397.63;;;13.80;76.15
71938;BME280;59810;48.800;9.086;2023-05-12T09:53:59;97395.47;;;13.77;76.01
71938;BME280;59810;48.800;9.086;2023-05-12T09:56:27;97394.97;;;13.55;77.61
71938;BME280;59810;48.800;9.086;2023-05-12T09:58:57;97393.59;;;13.62;76.38
71938;BME280;59810;48.800;9.086;2023-05-12T10:01:25;97393.34;;;13.54;77.33
71938;BME280;59810;48.800;9.086;2023-05-12T10:03:54;97392.22;;;13.65;77.19
71938;BME280;59810;48.800;9.086;2023-05-12T10:06:29;97388.19;;;13.57;77.89
71938;BME280;59810;48.800;9.086;2023-05-12T10:09:22;97397.38;;;13.61;80.01
71938;BME280;59810;48.800;9.086;2023-05-12T10:11:51;97396.28;;;13.73;79.27
71938;BME280;59810;48.800;9.086;2023-05-12T10:14:17;97401.97;;;13.81;78.37
71938;BME280;59810;48.800;9.086;2023-05-12T10:16:44;97402.72;;;14.02;76.50
71938;BME280;59810;48.800;9.086;2023-05-12T10:19:12;97403.25;;;14.04;76.04
71938;BME280;59810;48.800;9.086;2023-05-12T10:21:38;97409.91;;;14.27;78.66
71938;BME280;59810;48.800;9.086;2023-05-12T10:24:04;97399.31;;;14.30;75.42
71938;BME280;59810;48.800;9.086;2023-05-12T10:26:32;97402.78;;;14.41;74.05
71938;BME280;59810;48.800;9.086;2023-05-12T10:29:00;97397.19;;;14.77;71.24
71938;BME280;59810;48.800;9.086;2023-05-12T10:31:26;97394.91;;;14.89;70.45
71938;BME280;59810;48.800;9.086;2023-05-12T10:33:56;97403.72;;;14.76;70.64
71938;BME280;59810;48.800;9.086;2023-05-12T10:36:22;97402.72;;;14.95;70.16
71938;BME280;59810;48.800;9.086;2023-05-12T10:38:47;97394.13;;;14.83;71.11
71938;BME280;59810;48.800;9.086;2023-05-12T10:41:27;97398.13;;;14.52;72.07
71938;BME280;59810;48.800;9.086;2023-05-12T10:43:55;97402.22;;;14.49;72.22
71938;BME280;59810;48.800;9.086;2023-05-12T10:46:21;97396.34;;;14.32;73.43
71938;BME280;59810;48.800;9.086;2023-05-12T10:48:58;97396.69;;;14.15;73.75
71938;BME280;59810;48.800;9.086;2023-05-12T10:54:10;97398.09;;;13.97;76.36
71938;BME280;59810;48.800;9.086;2023-05-12T11:01:30;97391.97;;;14.36;73.82
71938;BME280;59810;48.800;9.086;2023-05-12T11:04:08;97398.34;;;14.60;74.60
71938;BME280;59810;48.800;9.086;2023-05-12T11:06:37;97396.22;;;14.52;74.20
71938;BME280;59810;48.800;9.086;2023-05-12T11:09:03;97396.84;;;14.39;74.97
71938;BME280;59810;48.800;9.086;2023-05-12T11:11:29;97401.28;;;14.15;74.07
71938;BME280;59810;48.800;9.086;2023-05-12T11:13:54;97401.22;;;14.35;75.12
71938;BME280;59810;48.800;9.086;2023-05-12T11:16:20;97403.28;;;14.53;76.36
71938;BME280;59810;48.800;9.086;2023-05-12T11:18:45;97406.78;;;14.59;75.51
71938;BME280;59810;48.800;9.086;2023-05-12T11:21:11;97406.41;;;14.76;75.37
71938;BME280;59810;48.800;9.086;2023-05-12T11:23:36;97401.97;;;14.90;77.29
71938;BME280;59810;48.800;9.086;2023-05-12T11:26:02;97411.16;;;14.99;76.10
71938;BME280;59810;48.800;9.086;2023-05-12T11:28:38;97406.66;;;14.79;73.60
71938;BME280;59810;48.800;9.086;2023-05-12T11:31:04;97408.31;;;14.75;73.43
71938;BME280;59810;48.800;9.086;2023-05-12T11:33:31;97411.44;;;14.92;73.91
71938;BME280;59810;48.800;9.086;2023-05-12T11:35:57;97412.06;;;14.84;73.24
71938;BME280;59810;48.800;9.086;2023-05-12T11:38:22;97412.03;;;14.89;72.92
71938;BME280;59810;48.800;9.086;2023-05-12T11:40:49;97416.09;;;14.92;72.54
71938;BME280;59810;48.800;9.086;2023-05-12T11:43:19;97423.00;;;14.74;71.94
71938;BME280;59810;48.800;9.086;2023-05-12T11:45:44;97418.72;;;14.63;73.41
71938;BME280;59810;48.800;9.086;2023-05-12T11:48:12;97424.09;;;14.73;73.95
71938;BME280;59810;48.800;9.086;2023-05-12T11:50:39;97419.97;;;14.81;74.27
71938;BME280;59810;48.800;9.086;2023-05-12T11:53:12;97419.81;;;14.67;74.58
71938;BME280;59810;48.800;9.086;2023-05-12T11:56:06;97425.03;;;14.92;76.03
71938;BME280;59810;48.800;9.086;2023-05-12T11:58:31;97426.63;;;15.04;78.08
71938;BME280;59810;48.800;9.086;2023-05-12T12:01:08;97425.25;;;15.06;78.52
71938;BME280;59810;48.800;9.086;2023-05-12T12:03:45;97426.66;;;14.99;80.09
71938;BME280;59810;48.800;9.086;2023-05-12T12:06:12;97439.16;;;15.00;80.72
71938;BME280;59810;48.800;9.086;2023-05-12T12:08:54;97431.81;;;15.00;80.63
71938;BME280;59810;48.800;9.086;2023-05-12T12:11:23;97435.59;;;15.04;80.30
71938;BME280;59810;48.800;9.086;2023-05-12T12:13:51;97437.41;;;15.14;79.67
71938;BME280;59810;48.800;9.086;2023-05-12T12:16:26;97437.44;;;15.09;81.02
71938;BME280;59810;48.800;9.086;2023-05-12T12:18:51;97434.22;;;15.07;80.79
71938;BME280;59810;48.800;9.086;2023-05-12T12:21:17;97432.97;;;14.89;81.42
71938;BME280;59810;48.800;9.086;2023-05-12T12:23:43;97435.34;;;15.01;81.60
71938;BME280;59810;48.800;9.086;2023-05-12T12:26:08;97435.41;;;14.90;79.25
71938;BME280;59810;48.800;9.086;2023-05-12T12:28:33;97444.41;;;14.86;79.72
71938;BME280;59810;48.800;9.086;2023-05-12T12:31:01;97439.06;;;14.71;78.89
71938;BME280;59810;48.800;9.086;2023-05-12T12:33:27;97442.03;;;14.74;80.08
71938;BME280;59810;48.800;9.086;2023-05-12T12:35:52;97448.09;;;14.56;82.96
71938;BME280;59810;48.800;9.086;2023-05-12T12:38:18;97446.44;;;14.60;83.82
71938;BME280;59810;48.800;9.086;2023-05-12T12:40:45;97447.31;;;14.50;83.11
71938;BME280;59810;48.800;9.086;2023-05-12T12:43:10;97445.06;;;14.62;83.69
71938;BME280;59810;48.800;9.086;2023-05-12T12:45:36;97442.34;;;14.68;83.62
71938;BME280;59810;48.800;9.086;2023-05-12T12:48:04;97433.78;;;14.89;82.27
71938;BME280;59810;48.800;9.086;2023-05-12T12:50:30;97438.78;;;15.11;80.27
71938;BME280;59810;48.800;9.086;2023-05-12T12:52:58;97443.47;;;15.40;79.44
71938;BME280;59810;48.800;9.086;2023-05-12T12:55:24;97439.84;;;15.78;79.20
71938;BME280;59810;48.800;9.086;2023-05-12T12:57:49;97438.50;;;16.05;74.76
71938;BME280;59810;48.800;9.086;2023-05-12T13:00:17;97439.22;;;16.34;73.54
71938;BME280;59810;48.800;9.086;2023-05-12T13:02:43;97427.81;;;16.75;70.09
71938;BME280;59810;48.800;9.086;2023-05-12T13:05:09;97433.56;;;16.49;65.82
71938;BME280;59810;48.800;9.086;2023-05-12T13:07:34;97430.84;;;16.31;69.87